| time (UTC) | temp C | wind direction | speed KPH | gust KPH | rain 1hr cm | rain 24hr cm | rain mn cm | humidity % | barometer mb |
| 20260502195950 | 13 | 351 | 4.8 | 9.7 | 0.00 | 0.00 | 0.00 | 85 | 1014.4 |
| 20260502195440 | 13 | 323 | 3.2 | 9.7 | 0.00 | 0.00 | 0.00 | 85 | 1014.4 |
| 20260502195205 | 13 | 16 | 3.2 | 8.0 | 0.00 | 0.00 | 0.00 | 85 | 1014.5 |
| 20260502194439 | 13 | 0 | 3.2 | 8.0 | 0.00 | 0.00 | 0.00 | 84 | 1014.4 |
| 20260502193939 | 14 | 337 | 3.2 | 8.0 | 0.00 | 0.00 | 0.00 | 84 | 1014.5 |
| 20260502193438 | 14 | 9 | 3.2 | 8.0 | 0.00 | 0.00 | 0.00 | 84 | 1014.4 |
| 20260502192939 | 14 | 27 | 4.8 | 12.9 | 0.00 | 0.00 | 0.00 | 83 | 1014.4 |
| 20260502192439 | 15 | 344 | 4.8 | 12.9 | 0.00 | 0.00 | 0.00 | 82 | 1014.4 |
| 20260502192201 | 15 | 350 | 4.8 | 9.7 | 0.00 | 0.00 | 0.00 | 82 | 1014.4 |
| 20260502191449 | 15 | 0 | 4.8 | 9.7 | 0.00 | 0.00 | 0.00 | 81 | 1014.3 |
| 20260502190928 | 15 | 0 | 3.2 | 8.0 | 0.00 | 0.00 | 0.00 | 80 | 1014.3 |
| 20260502190421 | 15 | 0 | 3.2 | 12.9 | 0.00 | 0.00 | 0.00 | 79 | 1014.3 |
| 20260502185918 | 16 | 0 | 4.8 | 12.9 | 0.00 | 0.00 | 0.00 | 79 | 1014.3 |
| 20260502185415 | 16 | 0 | 4.8 | 14.5 | 0.00 | 0.00 | 0.00 | 78 | 1014.3 |
| 20260502184915 | 16 | 28 | 4.8 | 14.5 | 0.00 | 0.00 | 0.00 | 77 | 1014.3 |
| 20260502184417 | 16 | 0 | 4.8 | 12.9 | 0.00 | 0.00 | 0.00 | 76 | 1014.2 |
| 20260502183914 | 16 | 320 | 4.8 | 12.9 | 0.00 | 0.00 | 0.00 | 76 | 1014.2 |
| 20260502183414 | 17 | 311 | 4.8 | 12.9 | 0.00 | 0.00 | 0.00 | 76 | 1014.2 |
| 20260502182915 | 17 | 315 | 4.8 | 9.7 | 0.00 | 0.00 | 0.00 | 76 | 1014.2 |
| 20260502182413 | 17 | 325 | 4.8 | 12.9 | 0.00 | 0.00 | 0.00 | 76 | 1014.2 |
| 20260502181912 | 17 | 333 | 4.8 | 12.9 | 0.00 | 0.00 | 0.00 | 76 | 1014.2 |
| 20260502181410 | 17 | 0 | 3.2 | 12.9 | 0.00 | 0.00 | 0.00 | 77 | 1014.2 |
| 20260502180908 | 17 | 336 | 4.8 | 12.9 | 0.00 | 0.00 | 0.00 | 77 | 1014.2 |
| 20260502180406 | 18 | 5 | 4.8 | 12.9 | 0.00 | 0.00 | 0.00 | 77 | 1014.2 |
| 20260502180127 | 18 | 0 | 4.8 | 14.5 | 0.00 | 0.00 | 0.00 | 77 | 1014.2 |
| 20260502170352 | 19 | 15 | 6.4 | 14.5 | 0.00 | 0.00 | 0.00 | 77 | 1014.4 |
| 20260502164348 | 20 | 0 | 6.4 | 14.5 | 0.00 | 0.00 | 0.00 | 76 | 1014.5 |
| 20260502164106 | 20 | 37 | 6.4 | 16.1 | 0.00 | 0.00 | 0.00 | 75 | 1014.5 |
| 20260502163347 | 20 | 19 | 6.4 | 16.1 | 0.00 | 0.00 | 0.00 | 74 | 1014.5 |
| 20260502162846 | 21 | 350 | 8.0 | 16.1 | 0.00 | 0.00 | 0.00 | 72 | 1014.6 |
| 20260502162346 | 21 | 22 | 8.0 | 16.1 | 0.00 | 0.00 | 0.00 | 71 | 1014.6 |
| 20260502161845 | 22 | 313 | 6.4 | 17.7 | 0.00 | 0.00 | 0.00 | 69 | 1014.6 |
| 20260502161342 | 22 | 32 | 8.0 | 17.7 | 0.00 | 0.00 | 0.00 | 64 | 1014.7 |
| 20260502160843 | 22 | 300 | 8.0 | 16.1 | 0.00 | 0.00 | 0.00 | 64 | 1014.6 |
| 20260502160341 | 22 | 341 | 8.0 | 17.7 | 0.00 | 0.00 | 0.00 | 63 | 1014.6 |
| 20260502152327 | 23 | 243 | 9.7 | 20.9 | 0.00 | 0.00 | 0.00 | 59 | 1015.0 |
| 20260502152050 | 23 | 254 | 9.7 | 17.7 | 0.00 | 0.00 | 0.00 | 60 | 1015.0 |
| 20260502151327 | 23 | 325 | 8.0 | 17.7 | 0.00 | 0.00 | 0.00 | 60 | 1015.0 |
| 20260502150825 | 23 | 267 | 6.4 | 16.1 | 0.00 | 0.00 | 0.00 | 60 | 1015.1 |
| 20260502150326 | 23 | 304 | 8.0 | 19.3 | 0.00 | 0.00 | 0.00 | 61 | 1015.2 |
| 20260502130251 | 23 | 287 | 11.3 | 22.5 | 0.00 | 0.00 | 0.00 | 48 | 1015.9 |
| 20260502123740 | 23 | 327 | 9.7 | 19.3 | 0.00 | 0.00 | 0.00 | 49 | 1016.0 |
| 20260502123241 | 23 | 282 | 9.7 | 20.9 | 0.00 | 0.00 | 0.00 | 49 | 1016.0 |
| 20260502122740 | 22 | 299 | 9.7 | 20.9 | 0.00 | 0.00 | 0.00 | 50 | 1016.1 |
| 20260502122240 | 23 | 331 | 9.7 | 17.7 | 0.00 | 0.00 | 0.00 | 49 | 1016.0 |
| 20260502121738 | 23 | 303 | 11.3 | 20.9 | 0.00 | 0.00 | 0.00 | 50 | 1016.0 |
| 20260502121457 | 23 | 325 | 11.3 | 22.5 | 0.00 | 0.00 | 0.00 | 48 | 1016.0 |
| 20260502120739 | 23 | 247 | 11.3 | 22.5 | 0.00 | 0.00 | 0.00 | 51 | 1016.1 |
| 20260502120238 | 23 | 318 | 9.7 | 20.9 | 0.00 | 0.00 | 0.00 | 51 | 1016.1 |
| 20260502115733 | 23 | 329 | 8.0 | 16.1 | 0.00 | 0.00 | 0.00 | 52 | 1016.1 |
| 20260502115233 | 23 | 296 | 8.0 | 16.1 | 0.00 | 0.00 | 0.00 | 50 | 1016.2 |
| 20260502114952 | 23 | 277 | 9.7 | 17.7 | 0.00 | 0.00 | 0.00 | 50 | 1016.3 |
| 20260502114717 | 23 | 300 | 9.7 | 19.3 | 0.00 | 0.00 | 0.00 | 50 | 1016.4 |
| 20260502113952 | 23 | 288 | 9.7 | 19.3 | 0.00 | 0.00 | 0.00 | 49 | 1016.3 |
| 20260502113229 | 23 | 271 | 9.7 | 22.5 | 0.00 | 0.00 | 0.00 | 48 | 1016.4 |
| 20260502112727 | 23 | 293 | 9.7 | 22.5 | 0.00 | 0.00 | 0.00 | 47 | 1016.5 |
| 20260502112227 | 23 | 238 | 8.0 | 19.3 | 0.00 | 0.00 | 0.00 | 47 | 1016.4 |
| 20260502111726 | 23 | 263 | 9.7 | 19.3 | 0.00 | 0.00 | 0.00 | 48 | 1016.4 |
| 20260502111226 | 23 | 291 | 9.7 | 20.9 | 0.00 | 0.00 | 0.00 | 46 | 1016.5 |
| 20260502110945 | 23 | 276 | 11.3 | 20.9 | 0.00 | 0.00 | 0.00 | 47 | 1016.4 |
| 20260502110224 | 23 | 267 | 9.7 | 19.3 | 0.00 | 0.00 | 0.00 | 47 | 1016.3 |
| 20260502105723 | 22 | 229 | 8.0 | 16.1 | 0.00 | 0.00 | 0.00 | 49 | 1016.4 |
| 20260502105219 | 22 | 259 | 6.4 | 16.1 | 0.00 | 0.00 | 0.00 | 49 | 1016.3 |
| 20260502104717 | 22 | 257 | 6.4 | 17.7 | 0.00 | 0.00 | 0.00 | 47 | 1016.2 |
| 20260502104214 | 22 | 253 | 9.7 | 20.9 | 0.00 | 0.00 | 0.00 | 45 | 1016.4 |
| 20260502103712 | 22 | 246 | 11.3 | 22.5 | 0.00 | 0.00 | 0.00 | 44 | 1016.6 |
| 20260502103212 | 23 | 232 | 12.9 | 27.4 | 0.00 | 0.00 | 0.00 | 43 | 1016.6 |
| 20260502102712 | 23 | 247 | 12.9 | 27.4 | 0.00 | 0.00 | 0.00 | 41 | 1016.6 |
| 20260502102204 | 23 | 239 | 11.3 | 24.1 | 0.00 | 0.00 | 0.00 | 42 | 1016.5 |
| 20260502101704 | 23 | 258 | 11.3 | 24.1 | 0.00 | 0.00 | 0.00 | 41 | 1016.5 |
| 20260502101203 | 24 | 278 | 9.7 | 22.5 | 0.00 | 0.00 | 0.00 | 39 | 1016.4 |
| 20260502100657 | 24 | 245 | 9.7 | 19.3 | 0.00 | 0.00 | 0.00 | 42 | 1016.4 |
| 20260502100155 | 23 | 228 | 9.7 | 22.5 | 0.00 | 0.00 | 0.00 | 42 | 1016.4 |
| 20260502091132 | 22 | 153 | 8.0 | 17.7 | 0.00 | 0.00 | 0.00 | 44 | 1016.8 |
| 20260502090632 | 22 | 154 | 8.0 | 16.1 | 0.00 | 0.00 | 0.00 | 45 | 1016.8 |
| 20260502090131 | 22 | 200 | 9.7 | 16.1 | 0.00 | 0.00 | 0.00 | 43 | 1016.8 |
| 20260502071116 | 17 | 149 | 9.7 | 19.3 | 0.00 | 0.00 | 0.00 | 59 | 1017.6 |
| 20260502070615 | 17 | 198 | 9.7 | 19.3 | 0.00 | 0.00 | 0.00 | 59 | 1017.7 |
| 20260502070336 | 17 | 237 | 8.0 | 16.1 | 0.00 | 0.00 | 0.00 | 61 | 1017.6 |
| 20260502070059 | 16 | 219 | 9.7 | 17.7 | 0.00 | 0.00 | 0.00 | 63 | 1017.7 |
| 20260502065342 | 16 | 217 | 9.7 | 17.7 | 0.00 | 0.00 | 0.00 | 63 | 1017.6 |
| 20260502064832 | 16 | 238 | 8.0 | 14.5 | 0.00 | 0.00 | 0.00 | 65 | 1017.5 |
| 20260502064109 | 15 | 186 | 8.0 | 16.1 | 0.00 | 0.00 | 0.00 | 66 | 1017.5 |
| 20260502063604 | 15 | 211 | 8.0 | 16.1 | 0.00 | 0.00 | 0.00 | 66 | 1017.4 |
| 20260502063104 | 15 | 208 | 8.0 | 16.1 | 0.00 | 0.00 | 0.00 | 67 | 1017.6 |
| 20260502062603 | 14 | 175 | 8.0 | 16.1 | 0.00 | 0.00 | 0.00 | 68 | 1017.7 |
| 20260502062104 | 13 | 205 | 9.7 | 17.7 | 0.00 | 0.00 | 0.00 | 69 | 1017.6 |
| 20260502061604 | 13 | 174 | 8.0 | 17.7 | 0.00 | 0.00 | 0.00 | 70 | 1017.5 |
| 20260502061104 | 12 | 203 | 8.0 | 17.7 | 0.00 | 0.00 | 0.00 | 72 | 1017.5 |
| 20260502060602 | 12 | 220 | 8.0 | 17.7 | 0.00 | 0.00 | 0.00 | 73 | 1017.5 |
| 20260502060107 | 12 | 184 | 6.4 | 16.1 | 0.00 | 0.00 | 0.00 | 73 | 1017.6 |
| 20260502055552 | 11 | 217 | 6.4 | 14.5 | 0.00 | 0.00 | 0.00 | 75 | 1017.6 |
| 20260502055104 | 11 | 197 | 4.8 | 14.5 | 0.00 | 0.00 | 0.00 | 75 | 1017.6 |
| 20260502054547 | 11 | 178 | 4.8 | 14.5 | 0.00 | 0.00 | 0.00 | 75 | 1017.7 |
| 20260502054045 | 11 | 207 | 6.4 | 14.5 | 0.00 | 0.00 | 0.00 | 76 | 1017.6 |
| 20260502053533 | 11 | 205 | 6.4 | 12.9 | 0.00 | 0.00 | 0.00 | 76 | 1017.6 |
| 20260502053029 | 10 | 209 | 6.4 | 12.9 | 0.00 | 0.00 | 0.00 | 77 | 1017.6 |
| 20260502052529 | 10 | 198 | 6.4 | 11.3 | 0.00 | 0.00 | 0.00 | 77 | 1017.5 |
| 20260502052027 | 10 | 192 | 6.4 | 14.5 | 0.00 | 0.00 | 0.00 | 77 | 1017.5 |
| 20260502051527 | 10 | 171 | 6.4 | 14.5 | 0.00 | 0.00 | 0.00 | 77 | 1017.6 |
| 20260502051027 | 10 | 165 | 6.4 | 12.9 | 0.00 | 0.00 | 0.00 | 77 | 1017.6 |
| 20260502050520 | 10 | 180 | 6.4 | 14.5 | 0.00 | 0.00 | 0.00 | 77 | 1017.6 |
| 20260502050020 | 10 | 184 | 6.4 | 14.5 | 0.00 | 0.00 | 0.00 | 77 | 1017.6 |
| 20260502045519 | 10 | 194 | 6.4 | 11.3 | 0.00 | 0.00 | 0.00 | 77 | 1017.6 |
| 20260502045020 | 10 | 180 | 6.4 | 11.3 | 0.00 | 0.00 | 0.00 | 77 | 1017.7 |
| 20260502044747 | 10 | 192 | 6.4 | 14.5 | 0.00 | 0.00 | 0.00 | 77 | 1017.7 |
| 20260502044020 | 10 | 204 | 6.4 | 14.5 | 0.00 | 0.00 | 0.00 | 77 | 1017.8 |
| 20260502043515 | 10 | 164 | 6.4 | 12.9 | 0.00 | 0.00 | 0.00 | 77 | 1017.8 |
| 20260502043021 | 10 | 188 | 6.4 | 12.9 | 0.00 | 0.00 | 0.00 | 77 | 1017.8 |
| 20260502042507 | 10 | 217 | 6.4 | 12.9 | 0.00 | 0.00 | 0.00 | 77 | 1017.7 |
| 20260502042002 | 10 | 163 | 6.4 | 12.9 | 0.00 | 0.00 | 0.00 | 76 | 1017.7 |
| 20260502041502 | 10 | 190 | 6.4 | 12.9 | 0.00 | 0.00 | 0.00 | 76 | 1017.7 |
| 20260502041004 | 10 | 156 | 6.4 | 14.5 | 0.00 | 0.00 | 0.00 | 76 | 1017.9 |
| 20260502040459 | 10 | 180 | 6.4 | 14.5 | 0.00 | 0.00 | 0.00 | 76 | 1017.9 |
| 20260502035954 | 10 | 183 | 6.4 | 11.3 | 0.00 | 0.00 | 0.00 | 76 | 1017.8 |
| 20260502035454 | 10 | 161 | 6.4 | 11.3 | 0.00 | 0.00 | 0.00 | 76 | 1017.9 |
| 20260502034954 | 10 | 181 | 8.0 | 14.5 | 0.00 | 0.00 | 0.00 | 76 | 1018.0 |
| 20260502034714 | 10 | 159 | 8.0 | 14.5 | 0.00 | 0.00 | 0.00 | 76 | 1017.9 |
| 20260502034216 | 10 | 175 | 8.0 | 12.9 | 0.00 | 0.00 | 0.00 | 76 | 1018.0 |
| 20260502033454 | 10 | 196 | 6.4 | 12.9 | 0.00 | 0.00 | 0.00 | 76 | 1018.0 |
| 20260502032956 | 10 | 174 | 6.4 | 12.9 | 0.00 | 0.00 | 0.00 | 76 | 1018.1 |
| 20260502032454 | 10 | 199 | 6.4 | 14.5 | 0.00 | 0.00 | 0.00 | 76 | 1018.1 |
| 20260502031956 | 10 | 161 | 6.4 | 14.5 | 0.00 | 0.00 | 0.00 | 76 | 1018.0 |
| 20260502031454 | 10 | 150 | 6.4 | 12.9 | 0.00 | 0.00 | 0.00 | 76 | 1018.1 |
| 20260502030955 | 10 | 183 | 6.4 | 11.3 | 0.00 | 0.00 | 0.00 | 76 | 1018.1 |
| 20260502030454 | 10 | 175 | 6.4 | 12.9 | 0.00 | 0.00 | 0.00 | 75 | 1018.2 |
| 20260502025953 | 10 | 188 | 6.4 | 12.9 | 0.00 | 0.00 | 0.00 | 75 | 1018.2 |
| 20260502025452 | 11 | 175 | 6.4 | 12.9 | 0.00 | 0.00 | 0.00 | 75 | 1018.3 |
| 20260502024953 | 11 | 157 | 8.0 | 14.5 | 0.00 | 0.00 | 0.00 | 75 | 1018.3 |
| 20260502024713 | 11 | 142 | 8.0 | 14.5 | 0.00 | 0.00 | 0.00 | 75 | 1018.3 |
| 20260502023954 | 11 | 162 | 8.0 | 14.5 | 0.00 | 0.00 | 0.00 | 75 | 1018.3 |
| 20260502023452 | 11 | 182 | 6.4 | 14.5 | 0.00 | 0.00 | 0.00 | 76 | 1018.4 |
| 20260502022953 | 11 | 132 | 6.4 | 11.3 | 0.00 | 0.00 | 0.00 | 76 | 1018.4 |
| 20260502022712 | 11 | 193 | 6.4 | 12.9 | 0.00 | 0.00 | 0.00 | 76 | 1018.4 |
| 20260502021953 | 11 | 194 | 6.4 | 12.9 | 0.00 | 0.00 | 0.00 | 76 | 1018.5 |
| 20260502021452 | 11 | 170 | 6.4 | 12.9 | 0.00 | 0.00 | 0.00 | 76 | 1018.5 |
| 20260502020951 | 11 | 198 | 6.4 | 12.9 | 0.00 | 0.00 | 0.00 | 76 | 1018.7 |
| 20260502020504 | 11 | 173 | 6.4 | 11.3 | 0.00 | 0.00 | 0.00 | 76 | 1018.7 |
| 20260502015949 | 11 | 176 | 4.8 | 14.5 | 0.00 | 0.00 | 0.00 | 76 | 1018.6 |
| 20260502015447 | 11 | 175 | 4.8 | 14.5 | 0.00 | 0.00 | 0.00 | 76 | 1018.7 |
| 20260502014947 | 11 | 164 | 6.4 | 12.9 | 0.00 | 0.00 | 0.00 | 76 | 1018.8 |
| 20260502014710 | 11 | 159 | 4.8 | 9.7 | 0.00 | 0.00 | 0.00 | 76 | 1018.8 |
| 20260502013945 | 11 | 157 | 4.8 | 11.3 | 0.00 | 0.00 | 0.00 | 76 | 1018.8 |
| 20260502013445 | 11 | 171 | 4.8 | 11.3 | 0.00 | 0.00 | 0.00 | 75 | 1018.9 |
| 20260502012945 | 11 | 148 | 6.4 | 11.3 | 0.00 | 0.00 | 0.00 | 75 | 1019.0 |
| 20260502012439 | 11 | 157 | 6.4 | 11.3 | 0.00 | 0.00 | 0.00 | 75 | 1019.0 |
| 20260502011934 | 11 | 156 | 6.4 | 11.3 | 0.00 | 0.00 | 0.00 | 75 | 1019.0 |
| 20260502011700 | 11 | 148 | 4.8 | 11.3 | 0.00 | 0.00 | 0.00 | 75 | 1019.2 |
| 20260502011157 | 11 | 142 | 6.4 | 9.7 | 0.00 | 0.00 | 0.00 | 74 | 1019.2 |
| 20260502010433 | 11 | 158 | 6.4 | 11.3 | 0.00 | 0.00 | 0.00 | 74 | 1019.2 |
| 20260502010201 | 11 | 152 | 4.8 | 11.3 | 0.00 | 0.00 | 0.00 | 74 | 1019.3 |
| 20260502005429 | 12 | 149 | 4.8 | 14.5 | 0.00 | 0.00 | 0.00 | 73 | 1019.4 |
| 20260502004929 | 12 | 140 | 4.8 | 14.5 | 0.00 | 0.00 | 0.00 | 73 | 1019.5 |
| 20260502004430 | 12 | 155 | 4.8 | 9.7 | 0.00 | 0.00 | 0.00 | 72 | 1019.5 |
| 20260502004153 | 12 | 165 | 6.4 | 12.9 | 0.00 | 0.00 | 0.00 | 72 | 1019.5 |
| 20260502003430 | 12 | 159 | 6.4 | 12.9 | 0.00 | 0.00 | 0.00 | 72 | 1019.6 |
| 20260502002927 | 12 | 140 | 6.4 | 12.9 | 0.00 | 0.00 | 0.00 | 72 | 1019.7 |
| 20260502002426 | 12 | 149 | 6.4 | 12.9 | 0.00 | 0.00 | 0.00 | 72 | 1019.8 |
| 20260502001926 | 12 | 149 | 6.4 | 12.9 | 0.00 | 0.00 | 0.00 | 72 | 1019.7 |
| 20260502001425 | 12 | 193 | 6.4 | 14.5 | 0.00 | 0.00 | 0.00 | 72 | 1019.8 |
| 20260502000938 | 12 | 169 | 4.8 | 14.5 | 0.00 | 0.00 | 0.00 | 71 | 1019.9 |
| 20260502000642 | 12 | 155 | 4.8 | 9.7 | 0.00 | 0.00 | 0.00 | 71 | 1019.9 |
| 20260501235923 | 12 | 158 | 4.8 | 11.3 | 0.00 | 0.00 | 0.00 | 71 | 1020.0 |
| 20260501235423 | 12 | 153 | 4.8 | 11.3 | 0.00 | 0.00 | 0.00 | 71 | 1020.1 |
| 20260501234924 | 12 | 175 | 4.8 | 11.3 | 0.00 | 0.00 | 0.00 | 71 | 1020.0 |
| 20260501234424 | 12 | 172 | 4.8 | 14.5 | 0.00 | 0.00 | 0.00 | 71 | 1020.1 |
| 20260501233923 | 13 | 191 | 4.8 | 14.5 | 0.00 | 0.00 | 0.00 | 71 | 1020.1 |
| 20260501233651 | 13 | 173 | 4.8 | 11.3 | 0.00 | 0.00 | 0.00 | 71 | 1020.1 |
| 20260501232923 | 13 | 191 | 4.8 | 11.3 | 0.00 | 0.00 | 0.00 | 71 | 1020.1 |
| 20260501232423 | 13 | 162 | 4.8 | 11.3 | 0.00 | 0.00 | 0.00 | 70 | 1020.3 |
| 20260501232146 | 13 | 174 | 4.8 | 12.9 | 0.00 | 0.00 | 0.00 | 70 | 1020.2 |
| 20260501231421 | 13 | 182 | 4.8 | 12.9 | 0.00 | 0.00 | 0.00 | 70 | 1020.2 |
| 20260501230921 | 13 | 161 | 4.8 | 12.9 | 0.00 | 0.00 | 0.00 | 70 | 1020.2 |
| 20260501230421 | 13 | 160 | 6.4 | 14.5 | 0.00 | 0.00 | 0.00 | 70 | 1020.2 |
| 20260501225922 | 13 | 132 | 6.4 | 14.5 | 0.00 | 0.00 | 0.00 | 70 | 1020.2 |
| 20260501225421 | 13 | 196 | 4.8 | 11.3 | 0.00 | 0.00 | 0.00 | 70 | 1020.2 |
| 20260501224921 | 13 | 171 | 4.8 | 11.3 | 0.00 | 0.00 | 0.00 | 70 | 1020.2 |
| 20260501224421 | 13 | 155 | 3.2 | 11.3 | 0.00 | 0.00 | 0.00 | 70 | 1020.2 |
| 20260501223919 | 13 | 161 | 4.8 | 11.3 | 0.00 | 0.00 | 0.00 | 70 | 1020.2 |
| 20260501223420 | 13 | 175 | 4.8 | 9.7 | 0.00 | 0.00 | 0.00 | 70 | 1020.2 |
| 20260501222919 | 13 | 172 | 4.8 | 9.7 | 0.00 | 0.00 | 0.00 | 70 | 1020.3 |
| 20260501222417 | 13 | 162 | 4.8 | 9.7 | 0.00 | 0.00 | 0.00 | 69 | 1020.3 |
| 20260501221917 | 13 | 153 | 4.8 | 8.0 | 0.00 | 0.00 | 0.00 | 69 | 1020.3 |
| 20260501221415 | 13 | 167 | 3.2 | 8.0 | 0.00 | 0.00 | 0.00 | 69 | 1020.3 |
| 20260501220915 | 14 | 173 | 3.2 | 8.0 | 0.00 | 0.00 | 0.00 | 68 | 1020.3 |
| 20260501220416 | 14 | 169 | 3.2 | 8.0 | 0.00 | 0.00 | 0.00 | 68 | 1020.3 |
| 20260501215913 | 14 | 142 | 3.2 | 8.0 | 0.00 | 0.00 | 0.00 | 66 | 1020.4 |
| 20260501215413 | 14 | 162 | 3.2 | 9.7 | 0.00 | 0.00 | 0.00 | 66 | 1020.4 |
| 20260501214913 | 14 | 160 | 3.2 | 9.7 | 0.00 | 0.00 | 0.00 | 67 | 1020.5 |
| 20260501214627 | 14 | 157 | 4.8 | 12.9 | 0.00 | 0.00 | 0.00 | 66 | 1020.5 |
| 20260501213908 | 14 | 139 | 6.4 | 12.9 | 0.00 | 0.00 | 0.00 | 65 | 1020.5 |
| 20260501213630 | 14 | 130 | 6.4 | 12.9 | 0.00 | 0.00 | 0.00 | 65 | 1020.5 |
| 20260501212909 | 14 | 147 | 6.4 | 12.9 | 0.00 | 0.00 | 0.00 | 66 | 1020.6 |
| 20260501212409 | 14 | 167 | 4.8 | 11.3 | 0.00 | 0.00 | 0.00 | 66 | 1020.7 |
| 20260501212350 | 14 | 148 | 4.8 | 11.3 | 0.00 | 0.00 | 0.00 | 65 | 1020.6 |
| 20260501211400 | 15 | 148 | 4.8 | 11.3 | 0.00 | 0.00 | 0.00 | 66 | 1020.6 |
| 20260501210858 | 15 | 155 | 4.8 | 11.3 | 0.00 | 0.00 | 0.00 | 65 | 1020.6 |
| 20260501210404 | 15 | 141 | 4.8 | 11.3 | 0.00 | 0.00 | 0.00 | 65 | 1020.7 |
| 20260501210106 | 15 | 146 | 4.8 | 11.3 | 0.00 | 0.00 | 0.00 | 65 | 1020.7 |
| 20260501205347 | 15 | 148 | 3.2 | 11.3 | 0.00 | 0.00 | 0.00 | 65 | 1020.7 |
| 20260501204845 | 15 | 171 | 3.2 | 9.7 | 0.00 | 0.00 | 0.00 | 65 | 1020.7 |
| 20260501204345 | 15 | 180 | 3.2 | 9.7 | 0.00 | 0.00 | 0.00 | 64 | 1020.7 |
| 20260501203843 | 15 | 160 | 3.2 | 9.7 | 0.00 | 0.00 | 0.00 | 64 | 1020.8 |
| 20260501203604 | 15 | 156 | 3.2 | 6.4 | 0.00 | 0.00 | 0.00 | 63 | 1020.8 |
| 20260501202838 | 15 | 148 | 3.2 | 8.0 | 0.00 | 0.00 | 0.00 | 63 | 1020.8 |
| 20260501202336 | 15 | 140 | 3.2 | 8.0 | 0.00 | 0.00 | 0.00 | 63 | 1020.7 |
| 20260501201832 | 16 | 128 | 3.2 | 6.4 | 0.00 | 0.00 | 0.00 | 62 | 1020.9 |
| 20260501201330 | 16 | 148 | 3.2 | 6.4 | 0.00 | 0.00 | 0.00 | 62 | 1021.0 |
| 20260501200814 | 16 | 147 | 3.2 | 9.7 | 0.00 | 0.00 | 0.00 | 62 | 1021.0 |
| 20260501200314 | 16 | 161 | 3.2 | 9.7 | 0.00 | 0.00 | 0.00 | 61 | 1021.1 |